KEPH

Ephrata Municipal Airport

Ephrata, Washington, USA
METAR KEPH 212253Z AUTO VRB03KT 4SM HZ SCT034 31/00 A3004 RMK AO2 SLP164 T03110000
Observed Flight Rules
Aug-21 @ 22:53 UTC (54 minutes ago) Marginal Visual Flight Rules
Wind Visibility Clouds Conditions
Variable at 3 knots 4 miles
  • Scattered at 3,400' AGL
  • Haze
Temperatures Readings
Current 31°C / 88°F
Dewpoint 0°C / 32°F
Humidity 13%
Altimeter 30.04" Hg
Pressure 1016.4 hPa
Elevation 383
METAR KEPH 212253Z AUTO VRB03KT 4SM HZ SCT034 31/00 A3004 RMK AO2 SLP164 T03110000
Observed Flight Rules
Aug-21 @ 22:53 UTC
(54 minutes ago)
MVFR
Wind Visibility
Variable at 3 knots 4 miles
Clouds
  • Scattered at 3,400' AGL
Conditions
  • Haze
Temperature Dewpoint
31°C / 88°F 0°C / 32°F
Humidity Altimeter Pressure
13% 30.04" Hg 1016.4 hPa